Chebeague Island, Maine
Current Conditions -  °F | °C
As of 4:51 PM on Friday 24 Oct 2014 (Local Time) from KPWM Reporting Station
Overcast Overcast  
Wind Chill: 53°   Ceiling: 2600
Heat Index: 53°   Visibility: 10mi
Dew Point: 45°   Wind: 6mph
Humidity: 74%   Direction: 330°NNW
Pressure: 29.66"   Gusts: NA
Location:  43.74°N, 70.11°W
Report Text: KPWM 242051Z 33005KT 10SM BKN026 OVC031 12/07 A2966 RMK AO2 SLP044 T01170072 55001
Loading
Personal Weather Stations






























Interactive Weather Map
Tropical Storm Tracking
New forecast layout! Learn more

10-Day Weather Forecast

Advertisements
Track Severe Weather on mobile